College Station, TX (77843)

12:20 PM CST on December 07, 2016 (GMT -0600)
APRSWXNET | | Change Station

Elev 313 ft 30.63 °N, 96.35 °W | Updated 23 minutes ago

Overcast
Overcast
54 °F
Feels Like 54 °F
N
0
Wind Variable Wind from SE
Gusts 0.0 mph

Today
High -- | Low -- °F
--% Chance of Precip.
Yesterday
High -- | Low -- °F
Precip. -- in
Pressure 30.09 in
Visibility 10.0 miles
Clouds Mostly Cloudy 1300 ft
Overcast 3800 ft
Dew Point 48 °F
Humidity 79%
Rainfall in
Snow Depth Not available.
7:10 AM 5:24 PM
First Quarter, 54% visible
METAR KCLL 071753Z 00000KT 10SM BKN013 OVC038 12/09 A3009 RMK AO2 SLP189 T01220089 10122 20072 58002
Pressure 30.09 in
Visibility 10.0 miles
Clouds Mostly Cloudy 1300 ft
Overcast 3800 ft
Dew Point 48 °F
Humidity 79%
Rainfall in
Snow Depth Not available.
7:10 AM 5:24 PM
First Quarter, 54% visible
METAR KCLL 071753Z 00000KT 10SM BKN013 OVC038 12/09 A3009 RMK AO2 SLP189 T01220089 10122 20072 58002

10-Day Weather Forecast

Almanac

Astronomy

Dec. 07, 2016 Rise Set
Actual Time
Civil Twilight
Nautical Twilight
Astronomical Twilight
Moon
Length of Visible Light
Length of Day
Tomorrow will be .
, % of the Moon is Illuminated

Today's Extremes

State Highs State Lows

Community

WunderPhotos

Upload Photos

1,956,157 photos uploaded!

WunderBlog® & News

Nearby

Air Quality

  Air Quality AQ Index Pollutant
Not available.

Snow Depth

Station Depth Elevation

Earthquake Activity

City Distance Mag. Time & Date
Minimum magnitude displayed is 2.5.

Coastal Water Temperatures

Place Temperature

Stations

Nearby Weather Stations

Station Location Temp. Windchill Dew Point Humidity Wind Precip. Elev Updated Type
                   

Watches & Warnings

There are currently no watches in effect.